sensor_id;sensor_type;location;lat;lon;timestamp;temperature;humidity
25360;DHT22;13311;51.386;0.016;2022-07-12T00:00:32;24.80;59.10
25360;DHT22;13311;51.386;0.016;2022-07-12T00:05:33;24.80;59.10
25360;DHT22;13311;51.386;0.016;2022-07-12T00:10:34;24.80;59.30
25360;DHT22;13311;51.386;0.016;2022-07-12T00:15:34;24.90;59.50
25360;DHT22;13311;51.386;0.016;2022-07-12T00:20:36;24.90;59.50
25360;DHT22;13311;51.386;0.016;2022-07-12T00:25:37;24.90;59.50
25360;DHT22;13311;51.386;0.016;2022-07-12T00:30:38;24.80;59.50
25360;DHT22;13311;51.386;0.016;2022-07-12T00:35:39;24.90;59.60
25360;DHT22;13311;51.386;0.016;2022-07-12T00:40:40;24.80;59.70
25360;DHT22;13311;51.386;0.016;2022-07-12T00:45:41;24.80;59.90
25360;DHT22;13311;51.386;0.016;2022-07-12T00:50:42;24.80;60.30
25360;DHT22;13311;51.386;0.016;2022-07-12T00:55:44;24.60;60.70
25360;DHT22;13311;51.386;0.016;2022-07-12T01:00:45;24.50;60.90
25360;DHT22;13311;51.386;0.016;2022-07-12T01:05:46;24.40;61.20
25360;DHT22;13311;51.386;0.016;2022-07-12T01:10:48;24.30;61.60
25360;DHT22;13311;51.386;0.016;2022-07-12T01:15:50;24.20;62.10
25360;DHT22;13311;51.386;0.016;2022-07-12T01:20:53;24.00;62.50
25360;DHT22;13311;51.386;0.016;2022-07-12T01:25:54;24.00;62.80
25360;DHT22;13311;51.386;0.016;2022-07-12T01:30:55;23.90;63.00
25360;DHT22;13311;51.386;0.016;2022-07-12T01:35:56;23.80;63.00
25360;DHT22;13311;51.386;0.016;2022-07-12T01:40:57;23.70;63.20
25360;DHT22;13311;51.386;0.016;2022-07-12T01:45:58;23.70;63.40
25360;DHT22;13311;51.386;0.016;2022-07-12T01:50:59;23.60;64.00
25360;DHT22;13311;51.386;0.016;2022-07-12T01:56:00;23.50;64.30
25360;DHT22;13311;51.386;0.016;2022-07-12T02:01:01;23.60;64.50
25360;DHT22;13311;51.386;0.016;2022-07-12T02:06:02;23.60;64.80
25360;DHT22;13311;51.386;0.016;2022-07-12T02:11:03;23.50;65.00
25360;DHT22;13311;51.386;0.016;2022-07-12T02:16:04;23.40;65.30
25360;DHT22;13311;51.386;0.016;2022-07-12T02:21:05;23.40;65.50
25360;DHT22;13311;51.386;0.016;2022-07-12T02:26:06;23.30;65.50
25360;DHT22;13311;51.386;0.016;2022-07-12T02:31:07;23.30;65.30
25360;DHT22;13311;51.386;0.016;2022-07-12T02:36:08;23.40;65.60
25360;DHT22;13311;51.386;0.016;2022-07-12T02:41:10;23.30;65.80
25360;DHT22;13311;51.386;0.016;2022-07-12T02:46:12;23.20;66.20
25360;DHT22;13311;51.386;0.016;2022-07-12T02:51:14;23.20;66.40
25360;DHT22;13311;51.386;0.016;2022-07-12T02:56:14;23.20;66.30
25360;DHT22;13311;51.386;0.016;2022-07-12T03:01:15;23.20;66.20
25360;DHT22;13311;51.386;0.016;2022-07-12T03:06:16;23.20;66.10
25360;DHT22;13311;51.386;0.016;2022-07-12T03:11:17;23.30;65.80
25360;DHT22;13311;51.386;0.016;2022-07-12T03:16:18;23.30;65.70
25360;DHT22;13311;51.386;0.016;2022-07-12T03:21:19;23.30;65.70
25360;DHT22;13311;51.386;0.016;2022-07-12T03:26:20;23.10;66.50
25360;DHT22;13311;51.386;0.016;2022-07-12T03:31:22;23.00;66.90
25360;DHT22;13311;51.386;0.016;2022-07-12T03:36:23;23.00;66.90
25360;DHT22;13311;51.386;0.016;2022-07-12T03:41:23;22.90;67.20
25360;DHT22;13311;51.386;0.016;2022-07-12T03:46:24;22.80;67.70
25360;DHT22;13311;51.386;0.016;2022-07-12T03:51:26;22.70;68.00
25360;DHT22;13311;51.386;0.016;2022-07-12T03:56:27;22.60;68.20
25360;DHT22;13311;51.386;0.016;2022-07-12T04:01:46;22.60;68.10
25360;DHT22;13311;51.386;0.016;2022-07-12T04:06:47;22.50;68.40
25360;DHT22;13311;51.386;0.016;2022-07-12T04:11:48;22.50;68.60
25360;DHT22;13311;51.386;0.016;2022-07-12T04:16:49;22.50;68.60
25360;DHT22;13311;51.386;0.016;2022-07-12T04:21:50;22.50;68.80
25360;DHT22;13311;51.386;0.016;2022-07-12T04:26:51;22.50;68.60
25360;DHT22;13311;51.386;0.016;2022-07-12T04:31:51;22.50;68.80
25360;DHT22;13311;51.386;0.016;2022-07-12T04:36:52;22.50;69.10
25360;DHT22;13311;51.386;0.016;2022-07-12T04:41:53;22.50;69.20
25360;DHT22;13311;51.386;0.016;2022-07-12T04:46:54;22.50;69.70
25360;DHT22;13311;51.386;0.016;2022-07-12T04:51:55;22.60;69.60
25360;DHT22;13311;51.386;0.016;2022-07-12T04:56:55;22.70;69.50
25360;DHT22;13311;51.386;0.016;2022-07-12T05:01:56;22.80;69.40
25360;DHT22;13311;51.386;0.016;2022-07-12T05:06:57;22.80;69.30
25360;DHT22;13311;51.386;0.016;2022-07-12T05:11:58;22.80;69.40
25360;DHT22;13311;51.386;0.016;2022-07-12T05:16:59;22.80;69.80
25360;DHT22;13311;51.386;0.016;2022-07-12T05:22:00;22.90;69.90
25360;DHT22;13311;51.386;0.016;2022-07-12T05:27:02;22.90;69.70
25360;DHT22;13311;51.386;0.016;2022-07-12T05:32:04;23.10;69.80
25360;DHT22;13311;51.386;0.016;2022-07-12T05:37:05;23.20;69.70
25360;DHT22;13311;51.386;0.016;2022-07-12T05:42:06;23.40;69.60
25360;DHT22;13311;51.386;0.016;2022-07-12T05:47:07;23.60;69.30
25360;DHT22;13311;51.386;0.016;2022-07-12T05:52:08;23.80;69.00
25360;DHT22;13311;51.386;0.016;2022-07-12T05:57:27;24.00;69.00
25360;DHT22;13311;51.386;0.016;2022-07-12T06:02:28;24.30;69.10
25360;DHT22;13311;51.386;0.016;2022-07-12T06:07:29;24.50;70.00
25360;DHT22;13311;51.386;0.016;2022-07-12T06:12:29;25.30;68.80
25360;DHT22;13311;51.386;0.016;2022-07-12T06:17:30;26.30;66.50
25360;DHT22;13311;51.386;0.016;2022-07-12T06:22:31;27.10;63.30
25360;DHT22;13311;51.386;0.016;2022-07-12T06:27:32;27.50;61.20
25360;DHT22;13311;51.386;0.016;2022-07-12T06:32:33;28.00;60.60
25360;DHT22;13311;51.386;0.016;2022-07-12T06:37:34;28.80;59.00
25360;DHT22;13311;51.386;0.016;2022-07-12T06:42:35;29.90;57.20
25360;DHT22;13311;51.386;0.016;2022-07-12T06:47:36;30.90;54.70
25360;DHT22;13311;51.386;0.016;2022-07-12T06:52:37;31.70;53.40
25360;DHT22;13311;51.386;0.016;2022-07-12T06:57:38;32.30;52.00
25360;DHT22;13311;51.386;0.016;2022-07-12T07:02:39;32.50;51.30
25360;DHT22;13311;51.386;0.016;2022-07-12T07:07:40;32.70;49.90
25360;DHT22;13311;51.386;0.016;2022-07-12T07:12:41;32.30;50.10
25360;DHT22;13311;51.386;0.016;2022-07-12T07:17:42;32.10;51.00
25360;DHT22;13311;51.386;0.016;2022-07-12T07:22:43;32.00;50.40
25360;DHT22;13311;51.386;0.016;2022-07-12T07:27:44;32.10;50.10
25360;DHT22;13311;51.386;0.016;2022-07-12T07:32:45;32.20;51.40
25360;DHT22;13311;51.386;0.016;2022-07-12T07:37:46;32.50;51.00
25360;DHT22;13311;51.386;0.016;2022-07-12T07:42:46;32.70;50.10
25360;DHT22;13311;51.386;0.016;2022-07-12T07:47:48;32.70;49.50
25360;DHT22;13311;51.386;0.016;2022-07-12T07:52:49;32.30;49.40
25360;DHT22;13311;51.386;0.016;2022-07-12T07:57:51;32.20;49.90
25360;DHT22;13311;51.386;0.016;2022-07-12T08:02:54;32.00;50.00
25360;DHT22;13311;51.386;0.016;2022-07-12T08:07:56;31.80;50.50
25360;DHT22;13311;51.386;0.016;2022-07-12T08:12:57;31.70;50.40
25360;DHT22;13311;51.386;0.016;2022-07-12T08:17:58;31.70;51.20
25360;DHT22;13311;51.386;0.016;2022-07-12T08:22:59;31.50;50.50
25360;DHT22;13311;51.386;0.016;2022-07-12T08:28:00;31.60;51.10
25360;DHT22;13311;51.386;0.016;2022-07-12T08:33:01;31.70;51.00
25360;DHT22;13311;51.386;0.016;2022-07-12T08:38:02;31.80;50.70
25360;DHT22;13311;51.386;0.016;2022-07-12T08:43:02;31.80;50.70
25360;DHT22;13311;51.386;0.016;2022-07-12T08:48:03;31.90;50.80
25360;DHT22;13311;51.386;0.016;2022-07-12T08:53:10;31.80;50.40
25360;DHT22;13311;51.386;0.016;2022-07-12T08:58:16;31.90;50.80
25360;DHT22;13311;51.386;0.016;2022-07-12T09:03:18;32.00;50.80
25360;DHT22;13311;51.386;0.016;2022-07-12T09:08:28;32.10;50.70
25360;DHT22;13311;51.386;0.016;2022-07-12T09:13:51;32.10;50.70
25360;DHT22;13311;51.386;0.016;2022-07-12T09:19:16;32.00;51.10
25360;DHT22;13311;51.386;0.016;2022-07-12T09:24:19;31.90;51.30
25360;DHT22;13311;51.386;0.016;2022-07-12T09:29:20;31.90;51.50
25360;DHT22;13311;51.386;0.016;2022-07-12T09:34:21;31.90;50.50
25360;DHT22;13311;51.386;0.016;2022-07-12T09:39:41;32.20;49.00
25360;DHT22;13311;51.386;0.016;2022-07-12T09:44:42;32.60;49.00
25360;DHT22;13311;51.386;0.016;2022-07-12T09:49:44;32.70;48.90
25360;DHT22;13311;51.386;0.016;2022-07-12T09:54:46;32.90;47.50
25360;DHT22;13311;51.386;0.016;2022-07-12T09:59:50;33.00;48.60
25360;DHT22;13311;51.386;0.016;2022-07-12T10:04:53;33.10;48.10
25360;DHT22;13311;51.386;0.016;2022-07-12T10:09:54;33.00;48.10
25360;DHT22;13311;51.386;0.016;2022-07-12T10:15:00;32.90;48.40
25360;DHT22;13311;51.386;0.016;2022-07-12T10:20:25;32.70;48.80
25360;DHT22;13311;51.386;0.016;2022-07-12T10:25:31;32.60;48.20
25360;DHT22;13311;51.386;0.016;2022-07-12T10:30:42;32.80;48.80
25360;DHT22;13311;51.386;0.016;2022-07-12T10:36:07;33.00;48.70
25360;DHT22;13311;51.386;0.016;2022-07-12T10:41:19;33.10;48.80
25360;DHT22;13311;51.386;0.016;2022-07-12T10:46:23;33.40;48.80
25360;DHT22;13311;51.386;0.016;2022-07-12T10:51:25;33.50;48.60
25360;DHT22;13311;51.386;0.016;2022-07-12T10:56:26;33.50;48.70
25360;DHT22;13311;51.386;0.016;2022-07-12T11:01:29;33.60;47.80
25360;DHT22;13311;51.386;0.016;2022-07-12T11:06:37;33.80;47.90
25360;DHT22;13311;51.386;0.016;2022-07-12T11:11:43;34.00;47.90
25360;DHT22;13311;51.386;0.016;2022-07-12T11:16:47;33.90;47.60
25360;DHT22;13311;51.386;0.016;2022-07-12T11:21:48;34.00;48.30
25360;DHT22;13311;51.386;0.016;2022-07-12T11:26:56;34.10;48.20
25360;DHT22;13311;51.386;0.016;2022-07-12T11:32:02;34.10;47.90
25360;DHT22;13311;51.386;0.016;2022-07-12T11:37:04;34.00;46.30
25360;DHT22;13311;51.386;0.016;2022-07-12T11:42:06;33.90;47.00
25360;DHT22;13311;51.386;0.016;2022-07-12T11:47:08;34.00;47.20
25360;DHT22;13311;51.386;0.016;2022-07-12T11:52:11;34.30;46.40
25360;DHT22;13311;51.386;0.016;2022-07-12T11:57:13;34.40;46.50
25360;DHT22;13311;51.386;0.016;2022-07-12T12:02:15;34.70;44.80
25360;DHT22;13311;51.386;0.016;2022-07-12T12:07:18;34.60;43.40
25360;DHT22;13311;51.386;0.016;2022-07-12T12:12:21;34.80;43.50
25360;DHT22;13311;51.386;0.016;2022-07-12T12:17:22;34.80;43.00
25360;DHT22;13311;51.386;0.016;2022-07-12T12:22:36;34.60;43.50
25360;DHT22;13311;51.386;0.016;2022-07-12T12:27:41;34.40;42.80
25360;DHT22;13311;51.386;0.016;2022-07-12T12:32:48;34.20;43.20
25360;DHT22;13311;51.386;0.016;2022-07-12T12:38:15;34.40;44.70
25360;DHT22;13311;51.386;0.016;2022-07-12T12:43:19;34.40;44.50
25360;DHT22;13311;51.386;0.016;2022-07-12T12:48:31;34.30;43.90
25360;DHT22;13311;51.386;0.016;2022-07-12T12:53:34;34.40;44.60
25360;DHT22;13311;51.386;0.016;2022-07-12T12:58:37;34.50;45.00
25360;DHT22;13311;51.386;0.016;2022-07-12T13:03:39;34.60;44.50
25360;DHT22;13311;51.386;0.016;2022-07-12T13:08:39;34.80;44.00
25360;DHT22;13311;51.386;0.016;2022-07-12T13:13:40;34.80;43.70
25360;DHT22;13311;51.386;0.016;2022-07-12T13:18:41;34.60;44.90
25360;DHT22;13311;51.386;0.016;2022-07-12T13:23:42;34.40;45.60
25360;DHT22;13311;51.386;0.016;2022-07-12T13:28:44;34.20;44.60
25360;DHT22;13311;51.386;0.016;2022-07-12T13:33:45;34.40;47.50
25360;DHT22;13311;51.386;0.016;2022-07-12T13:38:46;34.40;46.70
25360;DHT22;13311;51.386;0.016;2022-07-12T13:43:47;34.20;45.00
25360;DHT22;13311;51.386;0.016;2022-07-12T13:48:48;34.00;46.60
25360;DHT22;13311;51.386;0.016;2022-07-12T13:53:49;34.20;45.20
25360;DHT22;13311;51.386;0.016;2022-07-12T13:58:49;34.20;45.20
25360;DHT22;13311;51.386;0.016;2022-07-12T14:03:50;34.10;45.80
25360;DHT22;13311;51.386;0.016;2022-07-12T14:08:51;34.20;45.80
25360;DHT22;13311;51.386;0.016;2022-07-12T14:13:52;34.30;44.90
25360;DHT22;13311;51.386;0.016;2022-07-12T14:18:53;34.10;44.50
25360;DHT22;13311;51.386;0.016;2022-07-12T14:23:54;33.90;45.00
25360;DHT22;13311;51.386;0.016;2022-07-12T14:28:55;34.10;45.50
25360;DHT22;13311;51.386;0.016;2022-07-12T14:33:56;34.20;45.50
25360;DHT22;13311;51.386;0.016;2022-07-12T14:38:56;34.40;45.70
25360;DHT22;13311;51.386;0.016;2022-07-12T14:43:57;34.40;44.60
25360;DHT22;13311;51.386;0.016;2022-07-12T14:48:58;34.30;46.10
25360;DHT22;13311;51.386;0.016;2022-07-12T14:53:59;34.40;46.00
25360;DHT22;13311;51.386;0.016;2022-07-12T14:59:00;34.60;46.80
25360;DHT22;13311;51.386;0.016;2022-07-12T15:04:01;34.50;46.40
25360;DHT22;13311;51.386;0.016;2022-07-12T15:09:02;34.60;47.10
25360;DHT22;13311;51.386;0.016;2022-07-12T15:14:03;34.60;46.60
25360;DHT22;13311;51.386;0.016;2022-07-12T15:19:04;34.50;45.40
25360;DHT22;13311;51.386;0.016;2022-07-12T15:24:05;34.40;46.90
25360;DHT22;13311;51.386;0.016;2022-07-12T15:29:07;34.40;45.50
25360;DHT22;13311;51.386;0.016;2022-07-12T15:34:08;34.30;46.10
25360;DHT22;13311;51.386;0.016;2022-07-12T15:39:08;33.80;47.00
25360;DHT22;13311;51.386;0.016;2022-07-12T15:44:09;33.80;47.70
25360;DHT22;13311;51.386;0.016;2022-07-12T15:49:10;33.90;47.60
25360;DHT22;13311;51.386;0.016;2022-07-12T15:54:12;33.40;46.60
25360;DHT22;13311;51.386;0.016;2022-07-12T15:59:13;33.30;47.50
25360;DHT22;13311;51.386;0.016;2022-07-12T16:04:14;33.40;47.10
25360;DHT22;13311;51.386;0.016;2022-07-12T16:09:16;33.40;48.50
25360;DHT22;13311;51.386;0.016;2022-07-12T16:14:16;33.60;46.80
25360;DHT22;13311;51.386;0.016;2022-07-12T16:19:17;33.70;47.00
25360;DHT22;13311;51.386;0.016;2022-07-12T16:24:18;33.70;47.60
25360;DHT22;13311;51.386;0.016;2022-07-12T16:29:19;33.90;48.30
25360;DHT22;13311;51.386;0.016;2022-07-12T16:34:20;33.80;47.00
25360;DHT22;13311;51.386;0.016;2022-07-12T16:39:21;33.70;47.20
25360;DHT22;13311;51.386;0.016;2022-07-12T16:44:21;33.50;47.40
25360;DHT22;13311;51.386;0.016;2022-07-12T16:49:22;33.40;48.30
25360;DHT22;13311;51.386;0.016;2022-07-12T16:54:23;33.40;48.00
25360;DHT22;13311;51.386;0.016;2022-07-12T16:59:24;33.30;48.00
25360;DHT22;13311;51.386;0.016;2022-07-12T17:04:25;33.10;48.80
25360;DHT22;13311;51.386;0.016;2022-07-12T17:09:26;33.40;48.20
25360;DHT22;13311;51.386;0.016;2022-07-12T17:14:28;33.10;47.50
25360;DHT22;13311;51.386;0.016;2022-07-12T17:19:29;33.00;48.50
25360;DHT22;13311;51.386;0.016;2022-07-12T17:24:30;32.90;48.80
25360;DHT22;13311;51.386;0.016;2022-07-12T17:29:31;32.50;49.10
25360;DHT22;13311;51.386;0.016;2022-07-12T17:34:31;32.40;49.20
25360;DHT22;13311;51.386;0.016;2022-07-12T17:39:32;32.40;49.50
25360;DHT22;13311;51.386;0.016;2022-07-12T17:44:33;32.50;49.30
25360;DHT22;13311;51.386;0.016;2022-07-12T17:49:34;32.40;49.30
25360;DHT22;13311;51.386;0.016;2022-07-12T17:54:34;32.20;50.20
25360;DHT22;13311;51.386;0.016;2022-07-12T17:59:35;32.10;50.40
25360;DHT22;13311;51.386;0.016;2022-07-12T18:04:36;32.10;50.80
25360;DHT22;13311;51.386;0.016;2022-07-12T18:09:37;32.00;51.10
25360;DHT22;13311;51.386;0.016;2022-07-12T18:14:37;32.10;51.20
25360;DHT22;13311;51.386;0.016;2022-07-12T18:19:44;32.00;51.20
25360;DHT22;13311;51.386;0.016;2022-07-12T18:24:45;31.90;51.60
25360;DHT22;13311;51.386;0.016;2022-07-12T18:29:46;31.90;51.80
25360;DHT22;13311;51.386;0.016;2022-07-12T18:34:47;31.70;52.10
25360;DHT22;13311;51.386;0.016;2022-07-12T18:39:48;31.70;54.20
25360;DHT22;13311;51.386;0.016;2022-07-12T18:44:48;31.60;54.80
25360;DHT22;13311;51.386;0.016;2022-07-12T18:49:49;31.50;54.00
25360;DHT22;13311;51.386;0.016;2022-07-12T18:54:51;31.30;54.20
25360;DHT22;13311;51.386;0.016;2022-07-12T18:59:52;31.20;54.40
25360;DHT22;13311;51.386;0.016;2022-07-12T19:04:52;31.00;54.30
25360;DHT22;13311;51.386;0.016;2022-07-12T19:09:53;30.70;55.20
25360;DHT22;13311;51.386;0.016;2022-07-12T19:14:54;30.50;55.40
25360;DHT22;13311;51.386;0.016;2022-07-12T19:19:55;30.40;56.00
25360;DHT22;13311;51.386;0.016;2022-07-12T19:24:55;30.40;55.60
25360;DHT22;13311;51.386;0.016;2022-07-12T19:29:57;30.50;55.30
25360;DHT22;13311;51.386;0.016;2022-07-12T19:34:58;30.60;54.90
25360;DHT22;13311;51.386;0.016;2022-07-12T19:39:58;30.60;55.00
25360;DHT22;13311;51.386;0.016;2022-07-12T19:44:59;30.60;54.90
25360;DHT22;13311;51.386;0.016;2022-07-12T19:50:00;30.50;54.90
25360;DHT22;13311;51.386;0.016;2022-07-12T19:55:01;30.50;55.80
25360;DHT22;13311;51.386;0.016;2022-07-12T20:00:03;30.50;55.60
25360;DHT22;13311;51.386;0.016;2022-07-12T20:05:06;30.60;55.50
25360;DHT22;13311;51.386;0.016;2022-07-12T20:10:08;30.50;55.60
25360;DHT22;13311;51.386;0.016;2022-07-12T20:15:09;30.50;55.60
25360;DHT22;13311;51.386;0.016;2022-07-12T20:20:10;30.50;55.10
25360;DHT22;13311;51.386;0.016;2022-07-12T20:25:12;30.50;55.30
25360;DHT22;13311;51.386;0.016;2022-07-12T20:30:13;30.40;55.20
25360;DHT22;13311;51.386;0.016;2022-07-12T20:35:14;30.40;55.40
25360;DHT22;13311;51.386;0.016;2022-07-12T20:40:15;30.40;55.50
25360;DHT22;13311;51.386;0.016;2022-07-12T20:45:16;30.40;55.20
25360;DHT22;13311;51.386;0.016;2022-07-12T20:50:16;30.30;55.50
25360;DHT22;13311;51.386;0.016;2022-07-12T20:55:17;30.30;56.00
25360;DHT22;13311;51.386;0.016;2022-07-12T21:00:18;30.20;57.00
25360;DHT22;13311;51.386;0.016;2022-07-12T21:05:19;30.10;56.30
25360;DHT22;13311;51.386;0.016;2022-07-12T21:10:20;30.00;56.40
25360;DHT22;13311;51.386;0.016;2022-07-12T21:15:20;29.80;56.90
25360;DHT22;13311;51.386;0.016;2022-07-12T21:20:21;29.70;57.20
25360;DHT22;13311;51.386;0.016;2022-07-12T21:25:22;29.70;57.30
25360;DHT22;13311;51.386;0.016;2022-07-12T21:30:23;29.60;57.70
25360;DHT22;13311;51.386;0.016;2022-07-12T21:35:25;29.60;57.90
25360;DHT22;13311;51.386;0.016;2022-07-12T21:40:26;29.50;58.20
25360;DHT22;13311;51.386;0.016;2022-07-12T21:45:28;29.40;58.20
25360;DHT22;13311;51.386;0.016;2022-07-12T21:50:29;29.40;58.20
25360;DHT22;13311;51.386;0.016;2022-07-12T21:55:29;29.40;58.40
25360;DHT22;13311;51.386;0.016;2022-07-12T22:00:30;29.30;58.50
25360;DHT22;13311;51.386;0.016;2022-07-12T22:05:31;29.30;58.60
25360;DHT22;13311;51.386;0.016;2022-07-12T22:10:32;29.30;58.60
25360;DHT22;13311;51.386;0.016;2022-07-12T22:15:33;29.20;58.90
25360;DHT22;13311;51.386;0.016;2022-07-12T22:20:33;29.10;59.00
25360;DHT22;13311;51.386;0.016;2022-07-12T22:25:34;29.10;59.10
25360;DHT22;13311;51.386;0.016;2022-07-12T22:30:35;29.00;59.30
25360;DHT22;13311;51.386;0.016;2022-07-12T22:35:36;29.00;59.40
25360;DHT22;13311;51.386;0.016;2022-07-12T22:40:36;29.00;59.40
25360;DHT22;13311;51.386;0.016;2022-07-12T22:45:38;29.00;59.60
25360;DHT22;13311;51.386;0.016;2022-07-12T22:50:39;28.90;59.90
25360;DHT22;13311;51.386;0.016;2022-07-12T22:55:58;28.70;60.20
25360;DHT22;13311;51.386;0.016;2022-07-12T23:00:59;28.70;60.10
25360;DHT22;13311;51.386;0.016;2022-07-12T23:06:00;28.70;60.30
25360;DHT22;13311;51.386;0.016;2022-07-12T23:11:01;28.70;60.60
25360;DHT22;13311;51.386;0.016;2022-07-12T23:16:02;28.60;60.70
25360;DHT22;13311;51.386;0.016;2022-07-12T23:21:03;28.60;60.80
25360;DHT22;13311;51.386;0.016;2022-07-12T23:26:05;28.60;61.00
25360;DHT22;13311;51.386;0.016;2022-07-12T23:31:07;28.50;61.10
25360;DHT22;13311;51.386;0.016;2022-07-12T23:36:07;28.50;61.30
25360;DHT22;13311;51.386;0.016;2022-07-12T23:41:08;28.50;61.30
25360;DHT22;13311;51.386;0.016;2022-07-12T23:46:09;28.40;61.50
25360;DHT22;13311;51.386;0.016;2022-07-12T23:51:10;28.40;61.50
25360;DHT22;13311;51.386;0.016;2022-07-12T23:56:11;28.40;62.10
